Time,TemperatureF,DewpointF,PressureIn,WindDirection,WindDirectionDegrees,WindSpeedMPH,WindSpeedGustMPH,Humidity,HourlyPrecipIn,Conditions,Clouds,dailyrainin,SoftwareType,DateUTC
2013-09-22 00:02:00,66.0,50.3,29.88,NE,39,2.0,5.0,57,0.00,,---,0.00,VWS V14.01,2013-09-22 05:02:00,
2013-09-22 00:07:00,65.8,50.6,29.88,NE,44,4.0,5.0,58,0.00,,---,0.00,VWS V14.01,2013-09-22 05:07:00,
2013-09-22 00:12:00,65.6,50.4,29.88,NE,34,2.0,3.0,58,0.00,,---,0.00,VWS V14.01,2013-09-22 05:12:00,
2013-09-22 00:17:00,65.6,50.9,29.88,NE,37,1.0,3.0,59,0.00,,---,0.00,VWS V14.01,2013-09-22 05:17:00,
2013-09-22 00:22:00,65.4,50.7,29.88,ENE,76,2.0,2.0,59,0.00,,---,0.00,VWS V14.01,2013-09-22 05:22:00,
2013-09-22 00:27:00,65.3,50.6,29.88,NE,43,1.0,3.0,59,0.00,,---,0.00,VWS V14.01,2013-09-22 05:27:00,
2013-09-22 00:32:00,65.2,51.0,29.88,NNE,29,0.0,0.0,60,0.00,,---,0.00,VWS V14.01,2013-09-22 05:32:00,
2013-09-22 00:37:00,64.6,51.7,29.88,NNE,29,0.0,0.0,63,0.00,,---,0.00,VWS V14.01,2013-09-22 05:37:00,
2013-09-22 00:42:00,63.1,52.4,29.88,NNW,331,1.0,1.0,68,0.00,,---,0.00,VWS V14.01,2013-09-22 05:42:00,
2013-09-22 00:47:00,62.4,51.3,29.88,NNE,32,1.0,1.0,67,0.00,,---,0.00,VWS V14.01,2013-09-22 05:47:00,
2013-09-22 00:52:00,62.8,51.3,29.88,NNE,23,2.0,2.0,66,0.00,,---,0.00,VWS V14.01,2013-09-22 05:52:00,
2013-09-22 00:57:00,62.9,51.4,29.88,NNE,14,2.0,3.0,66,0.00,,---,0.00,VWS V14.01,2013-09-22 05:57:00,
2013-09-22 01:02:00,62.8,51.3,29.88,NNE,31,3.0,4.0,66,0.00,,---,0.00,VWS V14.01,2013-09-22 06:02:00,
2013-09-22 01:07:00,63.0,51.5,29.88,ENE,76,3.0,3.0,66,0.00,,---,0.00,VWS V14.01,2013-09-22 06:07:00,
2013-09-22 01:12:00,63.2,51.2,29.88,NE,34,1.0,2.0,65,0.00,,---,0.00,VWS V14.01,2013-09-22 06:12:00,
2013-09-22 01:17:00,63.4,51.4,29.88,NE,39,3.0,3.0,65,0.00,,---,0.00,VWS V14.01,2013-09-22 06:17:00,
2013-09-22 01:22:00,63.3,51.3,29.88,North,6,0.0,1.0,65,0.00,,---,0.00,VWS V14.01,2013-09-22 06:22:00,
2013-09-22 01:27:00,63.0,52.7,29.88,North,6,1.0,1.0,69,0.00,,---,0.00,VWS V14.01,2013-09-22 06:27:00,
2013-09-22 01:32:00,62.4,51.7,29.88,NNE,33,0.0,0.0,68,0.00,,---,0.00,VWS V14.01,2013-09-22 06:32:00,
2013-09-22 01:37:00,62.1,53.7,29.88,NNE,31,0.0,0.0,74,0.00,,---,0.00,VWS V14.01,2013-09-22 06:37:00,
2013-09-22 01:42:00,61.2,52.5,29.88,NNE,32,0.0,0.0,73,0.00,,---,0.00,VWS V14.01,2013-09-22 06:42:00,
2013-09-22 01:47:00,60.4,51.7,29.88,NNE,32,0.0,0.0,73,0.00,,---,0.00,VWS V14.01,2013-09-22 06:47:00,
2013-09-22 01:52:00,60.2,51.5,29.88,NNE,32,1.0,1.0,73,0.00,,---,0.00,VWS V14.01,2013-09-22 06:52:00,
2013-09-22 01:57:00,61.0,51.9,29.88,NNE,30,1.0,1.0,72,0.00,,---,0.00,VWS V14.01,2013-09-22 06:57:00,
2013-09-22 02:02:00,61.6,51.7,29.88,NE,36,0.0,1.0,70,0.00,,---,0.00,VWS V14.01,2013-09-22 07:02:00,
2013-09-22 02:07:00,61.8,51.5,29.88,NNE,20,0.0,1.0,69,0.00,,---,0.00,VWS V14.01,2013-09-22 07:07:00,
2013-09-22 02:12:00,61.9,52.0,29.88,NNE,20,1.0,1.0,70,0.00,,---,0.00,VWS V14.01,2013-09-22 07:12:00,
2013-09-22 02:17:00,60.9,52.2,29.88,NNW,340,2.0,2.0,73,0.00,,---,0.00,VWS V14.01,2013-09-22 07:17:00,
2013-09-22 02:22:00,60.0,52.1,29.88,NNW,344,2.0,2.0,75,0.00,,---,0.00,VWS V14.01,2013-09-22 07:22:00,
2013-09-22 02:27:00,59.9,52.0,29.89,NNE,25,3.0,3.0,75,0.00,,---,0.00,VWS V14.01,2013-09-22 07:27:00,
2013-09-22 02:32:00,60.8,51.3,29.88,NE,39,2.0,2.0,71,0.00,,---,0.00,VWS V14.01,2013-09-22 07:32:00,
2013-09-22 02:37:00,61.9,51.6,29.88,ENE,61,2.0,2.0,69,0.00,,---,0.00,VWS V14.01,2013-09-22 07:37:00,
2013-09-22 02:42:00,62.3,51.6,29.88,ENE,63,1.0,1.0,68,0.00,,---,0.00,VWS V14.01,2013-09-22 07:42:00,
2013-09-22 02:47:00,62.2,51.9,29.88,East,82,0.0,0.0,69,0.00,,---,0.00,VWS V14.01,2013-09-22 07:47:00,
2013-09-22 02:52:00,61.7,52.6,29.88,East,82,0.0,0.0,72,0.00,,---,0.00,VWS V14.01,2013-09-22 07:52:00,
2013-09-22 02:57:00,60.8,53.2,29.88,East,82,1.0,1.0,76,0.00,,---,0.00,VWS V14.01,2013-09-22 07:57:00,
2013-09-22 03:02:00,59.8,51.9,29.88,East,82,1.0,1.0,75,0.00,,---,0.00,VWS V14.01,2013-09-22 08:02:00,
2013-09-22 03:07:00,59.6,51.7,29.88,NE,56,0.0,0.0,75,0.00,,---,0.00,VWS V14.01,2013-09-22 08:07:00,
2013-09-22 03:12:00,59.7,51.8,29.88,North,352,1.0,1.0,75,0.00,,---,0.00,VWS V14.01,2013-09-22 08:12:00,
2013-09-22 03:17:00,59.7,51.8,29.88,North,352,0.0,0.0,75,0.00,,---,0.00,VWS V14.01,2013-09-22 08:17:00,
2013-09-22 03:22:00,59.7,51.8,29.88,North,353,0.0,0.0,75,0.00,,---,0.00,VWS V14.01,2013-09-22 08:22:00,
2013-09-22 03:27:00,59.6,52.0,29.87,North,352,0.0,1.0,76,0.00,,---,0.00,VWS V14.01,2013-09-22 08:27:00,
2013-09-22 03:32:00,59.7,52.1,29.88,North,352,0.0,0.0,76,0.00,,---,0.00,VWS V14.01,2013-09-22 08:32:00,
2013-09-22 03:37:00,59.8,52.2,29.87,North,354,0.0,1.0,76,0.00,,---,0.00,VWS V14.01,2013-09-22 08:37:00,
2013-09-22 03:42:00,59.9,52.3,29.88,North,352,1.0,1.0,76,0.00,,---,0.00,VWS V14.01,2013-09-22 08:42:00,
2013-09-22 03:47:00,59.4,52.5,29.87,North,352,1.0,1.0,78,0.00,,---,0.00,VWS V14.01,2013-09-22 08:47:00,
2013-09-22 03:52:00,58.2,52.4,29.87,NNW,346,2.0,2.0,81,0.00,,---,0.00,VWS V14.01,2013-09-22 08:52:00,
2013-09-22 03:57:00,57.8,52.0,29.87,NNW,348,1.0,2.0,81,0.00,,---,0.00,VWS V14.01,2013-09-22 08:57:00,
2013-09-22 04:02:00,58.0,52.2,29.87,North,350,1.0,1.0,81,0.00,,---,0.00,VWS V14.01,2013-09-22 09:02:00,
2013-09-22 04:07:00,58.0,52.2,29.87,North,350,1.0,1.0,81,0.00,,---,0.00,VWS V14.01,2013-09-22 09:07:00,
2013-09-22 04:12:00,57.9,52.5,29.87,North,350,1.0,1.0,82,0.00,,---,0.00,VWS V14.01,2013-09-22 09:12:00,
2013-09-22 04:17:00,57.9,52.5,29.87,North,349,1.0,2.0,82,0.00,,---,0.00,VWS V14.01,2013-09-22 09:17:00,
2013-09-22 04:22:00,58.1,52.0,29.88,North,8,1.0,2.0,80,0.00,,---,0.00,VWS V14.01,2013-09-22 09:22:00,
2013-09-22 04:27:00,58.2,52.4,29.87,North,8,1.0,1.0,81,0.00,,---,0.00,VWS V14.01,2013-09-22 09:27:00,
2013-09-22 04:32:00,58.1,52.0,29.88,North,7,1.0,1.0,80,0.00,,---,0.00,VWS V14.01,2013-09-22 09:32:00,
2013-09-22 04:37:00,57.8,52.3,29.87,North,355,1.0,1.0,82,0.00,,---,0.00,VWS V14.01,2013-09-22 09:37:00,
2013-09-22 04:42:00,57.3,52.2,29.87,North,356,1.0,1.0,83,0.00,,---,0.00,VWS V14.01,2013-09-22 09:42:00,
2013-09-22 04:47:00,57.7,51.9,29.87,NNE,14,1.0,1.0,81,0.00,,---,0.00,VWS V14.01,2013-09-22 09:47:00,
2013-09-22 04:52:00,57.7,51.9,29.87,North,4,2.0,2.0,81,0.00,,---,0.00,VWS V14.01,2013-09-22 09:52:00,
2013-09-22 04:57:00,57.5,51.7,29.87,NNE,30,3.0,3.0,81,0.00,,---,0.00,VWS V14.01,2013-09-22 09:57:00,
2013-09-22 05:02:00,58.1,51.3,29.87,NNE,14,3.0,3.0,78,0.00,,---,0.00,VWS V14.01,2013-09-22 10:02:00,
2013-09-22 05:07:00,58.4,51.6,29.87,North,9,2.0,2.0,78,0.00,,---,0.00,VWS V14.01,2013-09-22 10:07:00,
2013-09-22 05:12:00,58.2,51.7,29.88,North,352,1.0,2.0,79,0.00,,---,0.00,VWS V14.01,2013-09-22 10:12:00,
2013-09-22 05:17:00,58.0,51.5,29.88,North,352,0.0,1.0,79,0.00,,---,0.00,VWS V14.01,2013-09-22 10:17:00,
2013-09-22 05:22:00,57.8,51.7,29.88,NNE,14,2.0,2.0,80,0.00,,---,0.00,VWS V14.01,2013-09-22 10:22:00,
2013-09-22 05:27:00,57.6,51.1,29.88,NNE,25,3.0,3.0,79,0.00,,---,0.00,VWS V14.01,2013-09-22 10:27:00,
2013-09-22 05:32:00,57.5,51.0,29.88,NE,43,2.0,3.0,79,0.00,,---,0.00,VWS V14.01,2013-09-22 10:32:00,
2013-09-22 05:37:00,57.7,51.2,29.88,NE,36,2.0,3.0,79,0.00,,---,0.00,VWS V14.01,2013-09-22 10:37:00,
2013-09-22 05:42:00,57.7,51.2,29.88,ENE,58,4.0,4.0,79,0.00,,---,0.00,VWS V14.01,2013-09-22 10:42:00,
2013-09-22 05:47:00,57.6,51.1,29.88,NNE,12,3.0,4.0,79,0.00,,---,0.00,VWS V14.01,2013-09-22 10:47:00,
2013-09-22 05:52:00,57.5,51.0,29.88,North,349,2.0,3.0,79,0.00,,---,0.00,VWS V14.01,2013-09-22 10:52:00,
2013-09-22 05:57:00,56.9,51.1,29.88,North,360,2.0,2.0,81,0.00,,---,0.00,VWS V14.01,2013-09-22 10:57:00,
2013-09-22 06:02:00,56.8,51.0,29.88,NNE,23,3.0,4.0,81,0.00,,---,0.00,VWS V14.01,2013-09-22 11:02:00,
2013-09-22 06:07:00,57.1,51.0,29.89,NNE,22,3.0,5.0,80,0.00,,---,0.00,VWS V14.01,2013-09-22 11:07:00,
2013-09-22 06:12:00,57.4,51.0,29.89,NNE,22,3.0,4.0,79,0.00,,---,0.00,VWS V14.01,2013-09-22 11:12:00,
2013-09-22 06:17:00,57.6,51.1,29.89,NE,42,4.0,4.0,79,0.00,,---,0.00,VWS V14.01,2013-09-22 11:17:00,
2013-09-22 06:22:00,57.8,51.3,29.89,NE,44,3.0,3.0,79,0.00,,---,0.00,VWS V14.01,2013-09-22 11:22:00,
2013-09-22 06:27:00,57.7,51.2,29.89,NE,43,3.0,4.0,79,0.00,,---,0.00,VWS V14.01,2013-09-22 11:27:00,
2013-09-22 06:32:00,57.5,51.0,29.89,NNE,19,3.0,3.0,79,0.00,,---,0.00,VWS V14.01,2013-09-22 11:32:00,
2013-09-22 06:37:00,57.3,51.2,29.89,North,351,2.0,2.0,80,0.00,,---,0.00,VWS V14.01,2013-09-22 11:37:00,
2013-09-22 06:42:00,57.1,51.0,29.89,North,4,4.0,5.0,80,0.00,,---,0.00,VWS V14.01,2013-09-22 11:42:00,
2013-09-22 06:47:00,57.2,51.1,29.89,NNE,18,4.0,7.0,80,0.00,,---,0.00,VWS V14.01,2013-09-22 11:47:00,
2013-09-22 06:52:00,57.3,51.2,29.89,NE,44,3.0,4.0,80,0.00,,---,0.00,VWS V14.01,2013-09-22 11:52:00,
2013-09-22 06:57:00,57.2,51.1,29.89,NNE,30,4.0,4.0,80,0.00,,---,0.00,VWS V14.01,2013-09-22 11:57:00,
2013-09-22 07:02:00,57.2,51.1,29.89,NNE,15,1.0,4.0,80,0.00,,---,0.00,VWS V14.01,2013-09-22 12:02:00,
2013-09-22 07:07:00,57.1,51.0,29.89,NE,34,2.0,4.0,80,0.00,,---,0.00,VWS V14.01,2013-09-22 12:07:00,
2013-09-22 07:12:00,57.0,50.9,29.90,NE,49,2.0,5.0,80,0.00,,---,0.00,VWS V14.01,2013-09-22 12:12:00,
2013-09-22 07:17:00,57.0,51.2,29.90,NE,39,4.0,7.0,81,0.00,,---,0.00,VWS V14.01,2013-09-22 12:17:00,
2013-09-22 07:22:00,57.0,50.9,29.90,NE,39,2.0,3.0,80,0.00,,---,0.00,VWS V14.01,2013-09-22 12:22:00,
2013-09-22 07:27:00,57.1,51.0,29.90,NNE,15,2.0,2.0,80,0.00,,---,0.00,VWS V14.01,2013-09-22 12:27:00,
2013-09-22 07:32:00,57.2,51.1,29.90,North,10,2.0,2.0,80,0.00,,---,0.00,VWS V14.01,2013-09-22 12:32:00,
2013-09-22 07:37:00,57.3,51.2,29.91,North,1,1.0,2.0,80,0.00,,---,0.00,VWS V14.01,2013-09-22 12:37:00,
2013-09-22 07:42:00,57.5,51.4,29.91,NE,51,2.0,3.0,80,0.00,,---,0.00,VWS V14.01,2013-09-22 12:42:00,
2013-09-22 07:47:00,57.9,51.4,29.91,NNE,30,0.0,2.0,79,0.00,,---,0.00,VWS V14.01,2013-09-22 12:47:00,
2013-09-22 07:52:00,58.0,51.5,29.91,NNW,348,0.0,1.0,79,0.00,,---,0.00,VWS V14.01,2013-09-22 12:52:00,
2013-09-22 07:57:00,58.4,51.9,29.91,NNE,25,1.0,2.0,79,0.00,,---,0.00,VWS V14.01,2013-09-22 12:57:00,
2013-09-22 08:02:00,58.8,52.0,29.91,NE,44,2.0,3.0,78,0.00,,---,0.00,VWS V14.01,2013-09-22 13:02:00,
2013-09-22 08:07:00,59.3,52.5,29.92,NE,39,2.0,2.0,78,0.00,,---,0.00,VWS V14.01,2013-09-22 13:07:00,
2013-09-22 08:12:00,60.1,52.9,29.91,NE,55,0.0,0.0,77,0.00,,---,0.00,VWS V14.01,2013-09-22 13:12:00,
2013-09-22 08:17:00,61.0,53.4,29.91,ENE,70,0.0,2.0,76,0.00,,---,0.00,VWS V14.01,2013-09-22 13:17:00,
2013-09-22 08:22:00,62.2,53.8,29.92,East,81,2.0,3.0,74,0.00,,---,0.00,VWS V14.01,2013-09-22 13:22:00,
2013-09-22 08:27:00,62.9,54.5,29.92,ENE,77,1.0,1.0,74,0.00,,---,0.00,VWS V14.01,2013-09-22 13:27:00,
2013-09-22 08:32:00,63.8,54.6,29.92,ENE,70,2.0,3.0,72,0.00,,---,0.00,VWS V14.01,2013-09-22 13:32:00,
2013-09-22 08:37:00,64.1,55.3,29.92,ENE,65,1.0,2.0,73,0.00,,---,0.00,VWS V14.01,2013-09-22 13:37:00,
2013-09-22 08:42:00,64.4,54.8,29.92,ENE,78,5.0,7.0,71,0.00,,---,0.00,VWS V14.01,2013-09-22 13:42:00,
2013-09-22 08:47:00,64.6,55.0,29.92,ENE,62,5.0,7.0,71,0.00,,---,0.00,VWS V14.01,2013-09-22 13:47:00,
2013-09-22 08:52:00,65.1,55.5,29.92,East,90,1.0,4.0,71,0.00,,---,0.00,VWS V14.01,2013-09-22 13:52:00,
2013-09-22 08:57:00,65.7,55.7,29.92,East,94,4.0,5.0,70,0.00,,---,0.00,VWS V14.01,2013-09-22 13:57:00,
2013-09-22 09:02:00,65.8,56.2,29.92,East,84,4.0,4.0,71,0.00,,---,0.00,VWS V14.01,2013-09-22 14:02:00,
2013-09-22 09:07:00,66.4,55.9,29.92,ENE,78,5.0,5.0,69,0.00,,---,0.00,VWS V14.01,2013-09-22 14:07:00,
2013-09-22 09:12:00,66.6,56.5,29.92,East,98,4.0,4.0,70,0.00,,---,0.00,VWS V14.01,2013-09-22 14:12:00,
2013-09-22 09:17:00,66.9,56.4,29.92,ESE,107,4.0,6.0,69,0.00,,---,0.00,VWS V14.01,2013-09-22 14:17:00,
2013-09-22 09:22:00,67.2,57.1,29.93,East,89,1.0,2.0,70,0.00,,---,0.00,VWS V14.01,2013-09-22 14:22:00,
2013-09-22 09:27:00,67.9,57.0,29.93,ESE,104,4.0,5.0,68,0.00,,---,0.00,VWS V14.01,2013-09-22 14:27:00,
2013-09-22 09:32:00,68.4,56.6,29.93,SE,129,3.0,6.0,66,0.00,,---,0.00,VWS V14.01,2013-09-22 14:32:00,
2013-09-22 09:37:00,69.1,57.3,29.93,ESE,111,4.0,4.0,66,0.00,,---,0.00,VWS V14.01,2013-09-22 14:37:00,
2013-09-22 09:42:00,69.2,57.0,29.93,SSW,195,2.0,2.0,65,0.00,,---,0.00,VWS V14.01,2013-09-22 14:42:00,
2013-09-22 09:47:00,69.7,57.0,29.94,East,85,5.0,5.0,64,0.00,,---,0.00,VWS V14.01,2013-09-22 14:47:00,
2013-09-22 09:52:00,69.9,57.2,29.94,ESE,105,4.0,6.0,64,0.00,,---,0.00,VWS V14.01,2013-09-22 14:52:00,
2013-09-22 09:57:00,70.2,57.9,29.94,SSE,164,3.0,6.0,65,0.00,,---,0.00,VWS V14.01,2013-09-22 14:57:00,
2013-09-22 10:02:00,70.6,57.4,29.94,SSE,148,6.0,6.0,63,0.00,,---,0.00,VWS V14.01,2013-09-22 15:02:00,
2013-09-22 10:07:00,70.8,56.7,29.94,ENE,65,2.0,5.0,61,0.00,,---,0.00,VWS V14.01,2013-09-22 15:07:00,
2013-09-22 10:12:00,71.5,57.4,29.94,ESE,113,4.0,9.0,61,0.00,,---,0.00,VWS V14.01,2013-09-22 15:12:00,
2013-09-22 10:17:00,71.8,56.7,29.94,East,101,4.0,8.0,59,0.00,,---,0.00,VWS V14.01,2013-09-22 15:17:00,
2013-09-22 10:22:00,71.9,57.3,29.94,SSE,163,6.0,7.0,60,0.00,,---,0.00,VWS V14.01,2013-09-22 15:22:00,
2013-09-22 10:27:00,72.4,56.3,29.94,ESE,122,4.0,6.0,57,0.00,,---,0.00,VWS V14.01,2013-09-22 15:27:00,
2013-09-22 10:32:00,73.0,56.9,29.94,SE,146,6.0,6.0,57,0.00,,---,0.00,VWS V14.01,2013-09-22 15:32:00,
2013-09-22 10:37:00,73.4,56.3,29.94,SE,135,6.0,7.0,55,0.00,,---,0.00,VWS V14.01,2013-09-22 15:37:00,
2013-09-22 10:42:00,73.8,56.1,29.94,SE,132,8.0,10.0,54,0.00,,---,0.00,VWS V14.01,2013-09-22 15:42:00,
2013-09-22 10:47:00,73.6,55.4,29.94,SE,127,6.0,8.0,53,0.00,,---,0.00,VWS V14.01,2013-09-22 15:47:00,
2013-09-22 10:52:00,73.9,54.7,29.94,ENE,75,4.0,9.0,51,0.00,,---,0.00,VWS V14.01,2013-09-22 15:52:00,
2013-09-22 10:57:00,74.0,55.3,29.94,East,99,8.0,9.0,52,0.00,,---,0.00,VWS V14.01,2013-09-22 15:57:00,
2013-09-22 11:02:00,74.3,55.0,29.94,SSE,150,3.0,6.0,51,0.00,,---,0.00,VWS V14.01,2013-09-22 16:02:00,
2013-09-22 11:07:00,74.8,55.5,29.94,South,181,5.0,5.0,51,0.00,,---,0.00,VWS V14.01,2013-09-22 16:07:00,
2013-09-22 11:13:00,75.0,55.7,29.94,SSE,148,10.0,10.0,51,0.00,,---,0.00,VWS V14.01,2013-09-22 16:13:00,
2013-09-22 11:18:00,75.8,55.9,29.94,South,174,2.0,4.0,50,0.00,,---,0.00,VWS V14.01,2013-09-22 16:18:00,
2013-09-22 11:23:00,75.4,54.9,29.93,South,172,5.0,7.0,49,0.00,,---,0.00,VWS V14.01,2013-09-22 16:23:00,
2013-09-22 11:28:00,75.9,55.4,29.93,SE,143,8.0,9.0,49,0.00,,---,0.00,VWS V14.01,2013-09-22 16:28:00,
2013-09-22 11:33:00,75.5,55.0,29.93,SE,135,3.0,6.0,49,0.00,,---,0.00,VWS V14.01,2013-09-22 16:33:00,
2013-09-22 11:38:00,75.7,55.2,29.93,ESE,120,5.0,8.0,49,0.00,,---,0.00,VWS V14.01,2013-09-22 16:38:00,
2013-09-22 11:43:00,75.3,54.8,29.93,ESE,119,5.0,7.0,49,0.00,,---,0.00,VWS V14.01,2013-09-22 16:43:00,
2013-09-22 11:48:00,75.5,55.6,29.93,East,96,3.0,4.0,50,0.00,,---,0.00,VWS V14.01,2013-09-22 16:48:00,
2013-09-22 11:53:00,75.8,54.7,29.92,South,175,3.0,4.0,48,0.00,,---,0.00,VWS V14.01,2013-09-22 16:53:00,
2013-09-22 11:58:00,76.5,55.4,29.92,SSE,157,5.0,6.0,48,0.00,,---,0.00,VWS V14.01,2013-09-22 16:58:00,
2013-09-22 12:03:00,76.2,55.7,29.92,SE,134,3.0,4.0,49,0.00,,---,0.00,VWS V14.01,2013-09-22 17:03:00,
2013-09-22 12:08:00,76.7,55.0,29.92,SSE,159,4.0,8.0,47,0.00,,---,0.00,VWS V14.01,2013-09-22 17:08:00,
2013-09-22 12:13:00,76.7,55.0,29.92,South,173,7.0,7.0,47,0.00,,---,0.00,VWS V14.01,2013-09-22 17:13:00,
2013-09-22 12:18:00,77.0,54.7,29.92,South,179,2.0,3.0,46,0.00,,---,0.00,VWS V14.01,2013-09-22 17:18:00,
2013-09-22 12:23:00,77.3,54.9,29.92,NNE,29,2.0,2.0,46,0.00,,---,0.00,VWS V14.01,2013-09-22 17:23:00,
2013-09-22 12:28:00,77.4,56.2,29.92,South,175,3.0,4.0,48,0.00,,---,0.00,VWS V14.01,2013-09-22 17:28:00,
2013-09-22 12:33:00,78.4,55.9,29.92,ESE,110,2.0,4.0,46,0.00,,---,0.00,VWS V14.01,2013-09-22 17:33:00,
2013-09-22 12:38:00,78.7,55.0,29.92,SSE,158,3.0,6.0,44,0.00,,---,0.00,VWS V14.01,2013-09-22 17:38:00,
2013-09-22 12:43:00,78.5,53.5,29.92,South,169,3.0,5.0,42,0.00,,---,0.00,VWS V14.01,2013-09-22 17:43:00,
2013-09-22 12:48:00,78.6,54.9,29.91,East,82,1.0,1.0,44,0.00,,---,0.00,VWS V14.01,2013-09-22 17:48:00,
2013-09-22 12:53:00,79.2,54.2,29.91,SE,127,1.0,2.0,42,0.00,,---,0.00,VWS V14.01,2013-09-22 17:53:00,
2013-09-22 12:58:00,80.0,54.2,29.91,ENE,75,2.0,3.0,41,0.00,,---,0.00,VWS V14.01,2013-09-22 17:58:00,
2013-09-22 13:03:00,79.7,53.9,29.91,East,99,4.0,6.0,41,0.00,,---,0.00,VWS V14.01,2013-09-22 18:03:00,
2013-09-22 13:08:00,78.9,53.2,29.91,East,79,3.0,3.0,41,0.00,,---,0.00,VWS V14.01,2013-09-22 18:08:00,
2013-09-22 13:13:00,78.6,53.0,29.90,ENE,74,3.0,5.0,41,0.00,,---,0.00,VWS V14.01,2013-09-22 18:13:00,
2013-09-22 13:18:00,78.4,53.4,29.90,NE,53,6.0,10.0,42,0.00,,---,0.00,VWS V14.01,2013-09-22 18:18:00,
2013-09-22 13:23:00,78.3,53.3,29.90,NNE,33,3.0,10.0,42,0.00,,---,0.00,VWS V14.01,2013-09-22 18:23:00,
2013-09-22 13:28:00,78.2,52.6,29.89,ENE,68,4.0,7.0,41,0.00,,---,0.00,VWS V14.01,2013-09-22 18:28:00,
2013-09-22 13:33:00,78.2,52.6,29.89,East,79,3.0,5.0,41,0.00,,---,0.00,VWS V14.01,2013-09-22 18:33:00,
2013-09-22 13:38:00,78.4,52.8,29.89,NW,325,1.0,3.0,41,0.00,,---,0.00,VWS V14.01,2013-09-22 18:38:00,
2013-09-22 13:43:00,78.6,53.0,29.89,East,99,3.0,6.0,41,0.00,,---,0.00,VWS V14.01,2013-09-22 18:43:00,
2013-09-22 13:48:00,79.0,53.3,29.88,North,358,7.0,7.0,41,0.00,,---,0.00,VWS V14.01,2013-09-22 18:48:00,
2013-09-22 13:53:00,79.5,52.4,29.88,NE,51,7.0,11.0,39,0.00,,---,0.00,VWS V14.01,2013-09-22 18:53:00,
2013-09-22 13:58:00,79.3,52.9,29.88,ENE,78,9.0,12.0,40,0.00,,---,0.00,VWS V14.01,2013-09-22 18:58:00,
2013-09-22 14:03:00,78.9,52.5,29.88,ENE,61,6.0,8.0,40,0.00,,---,0.00,VWS V14.01,2013-09-22 19:03:00,
2013-09-22 14:08:00,78.9,51.9,29.87,NE,46,3.0,5.0,39,0.00,,---,0.00,VWS V14.01,2013-09-22 19:08:00,
2013-09-22 14:13:00,79.5,52.4,29.87,NE,49,4.0,9.0,39,0.00,,---,0.00,VWS V14.01,2013-09-22 19:13:00,
2013-09-22 14:18:00,79.4,51.6,29.87,NE,49,9.0,11.0,38,0.00,,---,0.00,VWS V14.01,2013-09-22 19:18:00,
2013-09-22 14:23:00,79.4,52.3,29.86,East,83,1.0,7.0,39,0.00,,---,0.00,VWS V14.01,2013-09-22 19:23:00,
2013-09-22 14:28:00,80.2,53.0,29.86,East,86,2.0,4.0,39,0.00,,---,0.00,VWS V14.01,2013-09-22 19:28:00,
2013-09-22 14:33:00,80.3,52.4,29.86,NW,304,4.0,5.0,38,0.00,,---,0.00,VWS V14.01,2013-09-22 19:33:00,
2013-09-22 14:38:00,80.3,51.7,29.86,NE,56,4.0,4.0,37,0.00,,---,0.00,VWS V14.01,2013-09-22 19:38:00,
2013-09-22 14:43:00,80.6,52.7,29.86,ENE,58,2.0,2.0,38,0.00,,---,0.00,VWS V14.01,2013-09-22 19:43:00,
2013-09-22 14:48:00,80.6,52.0,29.85,NNE,13,2.0,2.0,37,0.00,,---,0.00,VWS V14.01,2013-09-22 19:48:00,
2013-09-22 14:53:00,80.7,51.3,29.85,ENE,64,2.0,2.0,36,0.00,,---,0.00,VWS V14.01,2013-09-22 19:53:00,
2013-09-22 14:58:00,80.6,52.0,29.85,ENE,61,9.0,10.0,37,0.00,,---,0.00,VWS V14.01,2013-09-22 19:58:00,
2013-09-22 15:03:00,80.3,51.7,29.84,ENE,74,4.0,10.0,37,0.00,,---,0.00,VWS V14.01,2013-09-22 20:03:00,
2013-09-22 15:08:00,80.7,50.5,29.84,SE,133,1.0,6.0,35,0.00,,---,0.00,VWS V14.01,2013-09-22 20:08:00,
2013-09-22 15:13:00,80.7,50.5,29.84,ESE,120,3.0,8.0,35,0.00,,---,0.00,VWS V14.01,2013-09-22 20:13:00,
2013-09-22 15:18:00,81.3,51.8,29.84,SE,146,3.0,5.0,36,0.00,,---,0.00,VWS V14.01,2013-09-22 20:18:00,
2013-09-22 15:23:00,81.7,51.4,29.84,East,82,1.0,3.0,35,0.00,,---,0.00,VWS V14.01,2013-09-22 20:23:00,
2013-09-22 15:28:00,81.3,51.1,29.83,East,101,7.0,8.0,35,0.00,,---,0.00,VWS V14.01,2013-09-22 20:28:00,
2013-09-22 15:33:00,81.5,51.2,29.83,ENE,72,4.0,9.0,35,0.00,,---,0.00,VWS V14.01,2013-09-22 20:33:00,
2013-09-22 15:38:00,81.5,52.0,29.83,NE,41,7.0,7.0,36,0.00,,---,0.00,VWS V14.01,2013-09-22 20:38:00,
2013-09-22 15:43:00,81.4,49.6,29.83,ENE,78,6.0,8.0,33,0.00,,---,0.00,VWS V14.01,2013-09-22 20:43:00,
2013-09-22 15:48:00,81.2,50.2,29.83,NE,51,5.0,7.0,34,0.00,,---,0.00,VWS V14.01,2013-09-22 20:48:00,
2013-09-22 15:53:00,81.0,50.0,29.83,ESE,103,5.0,8.0,34,0.00,,---,0.00,VWS V14.01,2013-09-22 20:53:00,
2013-09-22 15:58:00,81.6,50.5,29.82,ENE,62,7.0,8.0,34,0.00,,---,0.00,VWS V14.01,2013-09-22 20:58:00,
2013-09-22 16:03:00,81.8,49.9,29.83,NNE,16,3.0,8.0,33,0.00,,---,0.00,VWS V14.01,2013-09-22 21:03:00,
2013-09-22 16:08:00,81.5,51.2,29.82,ESE,122,5.0,6.0,35,0.00,,---,0.00,VWS V14.01,2013-09-22 21:08:00,
2013-09-22 16:13:00,81.5,49.7,29.82,East,85,2.0,2.0,33,0.00,,---,0.00,VWS V14.01,2013-09-22 21:13:00,
2013-09-22 16:18:00,81.5,50.5,29.82,NW,311,0.0,1.0,34,0.00,,---,0.00,VWS V14.01,2013-09-22 21:18:00,
2013-09-22 16:23:00,81.6,50.5,29.82,NNE,32,5.0,7.0,34,0.00,,---,0.00,VWS V14.01,2013-09-22 21:23:00,
2013-09-22 16:28:00,81.7,51.4,29.81,NW,325,3.0,5.0,35,0.00,,---,0.00,VWS V14.01,2013-09-22 21:28:00,
2013-09-22 16:33:00,81.7,50.6,29.81,ENE,67,7.0,7.0,34,0.00,,---,0.00,VWS V14.01,2013-09-22 21:33:00,
2013-09-22 16:38:00,81.8,51.5,29.81,NE,46,3.0,10.0,35,0.00,,---,0.00,VWS V14.01,2013-09-22 21:38:00,
2013-09-22 16:43:00,81.8,50.7,29.81,NE,54,4.0,6.0,34,0.00,,---,0.00,VWS V14.01,2013-09-22 21:43:00,
2013-09-22 16:48:00,81.8,51.5,29.81,East,81,4.0,10.0,35,0.00,,---,0.00,VWS V14.01,2013-09-22 21:48:00,
2013-09-22 16:53:00,82.0,50.9,29.81,North,11,6.0,8.0,34,0.00,,---,0.00,VWS V14.01,2013-09-22 21:53:00,
2013-09-22 16:58:00,82.0,50.9,29.81,ESE,113,5.0,7.0,34,0.00,,---,0.00,VWS V14.01,2013-09-22 21:58:00,
2013-09-22 17:03:00,82.2,51.1,29.81,SSW,193,0.0,6.0,34,0.00,,---,0.00,VWS V14.01,2013-09-22 22:03:00,
2013-09-22 17:08:00,82.2,51.1,29.81,East,89,6.0,9.0,34,0.00,,---,0.00,VWS V14.01,2013-09-22 22:08:00,
2013-09-22 17:13:00,81.9,50.8,29.81,NNE,16,5.0,5.0,34,0.00,,---,0.00,VWS V14.01,2013-09-22 22:13:00,
2013-09-22 17:18:00,81.9,50.8,29.81,ESE,117,3.0,4.0,34,0.00,,---,0.00,VWS V14.01,2013-09-22 22:18:00,
2013-09-22 17:23:00,82.1,51.0,29.80,NE,34,2.0,7.0,34,0.00,,---,0.00,VWS V14.01,2013-09-22 22:23:00,
2013-09-22 17:28:00,82.0,50.9,29.80,ENE,70,6.0,7.0,34,0.00,,---,0.00,VWS V14.01,2013-09-22 22:28:00,
2013-09-22 17:33:00,81.9,50.8,29.81,ESE,122,5.0,9.0,34,0.00,,---,0.00,VWS V14.01,2013-09-22 22:33:00,
2013-09-22 17:38:00,81.8,49.9,29.80,East,82,2.0,5.0,33,0.00,,---,0.00,VWS V14.01,2013-09-22 22:38:00,
2013-09-22 17:43:00,81.7,51.4,29.80,NE,56,3.0,7.0,35,0.00,,---,0.00,VWS V14.01,2013-09-22 22:43:00,
2013-09-22 17:48:00,81.6,49.7,29.80,ENE,63,5.0,8.0,33,0.00,,---,0.00,VWS V14.01,2013-09-22 22:48:00,
2013-09-22 17:53:00,81.6,52.1,29.80,East,96,4.0,7.0,36,0.00,,---,0.00,VWS V14.01,2013-09-22 22:53:00,
2013-09-22 17:58:00,81.6,52.1,29.80,ENE,74,6.0,10.0,36,0.00,,---,0.00,VWS V14.01,2013-09-22 22:58:00,
2013-09-22 18:03:00,81.7,52.2,29.80,ENE,63,2.0,7.0,36,0.00,,---,0.00,VWS V14.01,2013-09-22 23:03:00,
2013-09-22 18:08:00,81.4,51.9,29.80,ENE,70,8.0,11.0,36,0.00,,---,0.00,VWS V14.01,2013-09-22 23:08:00,
2013-09-22 18:13:00,81.2,51.7,29.80,ENE,72,5.0,12.0,36,0.00,,---,0.00,VWS V14.01,2013-09-22 23:13:00,
2013-09-22 18:18:00,81.0,51.6,29.80,East,99,4.0,7.0,36,0.00,,---,0.00,VWS V14.01,2013-09-22 23:18:00,
2013-09-22 18:23:00,81.0,53.0,29.80,ENE,63,6.0,8.0,38,0.00,,---,0.00,VWS V14.01,2013-09-22 23:23:00,
2013-09-22 18:28:00,81.0,52.3,29.80,SSE,162,3.0,7.0,37,0.00,,---,0.00,VWS V14.01,2013-09-22 23:28:00,
2013-09-22 18:33:00,81.1,51.7,29.80,East,96,4.0,4.0,36,0.00,,---,0.00,VWS V14.01,2013-09-22 23:33:00,
2013-09-22 18:38:00,81.1,52.4,29.80,ESE,117,1.0,4.0,37,0.00,,---,0.00,VWS V14.01,2013-09-22 23:38:00,
2013-09-22 18:43:00,80.9,53.7,29.80,ESE,107,7.0,7.0,39,0.00,,---,0.00,VWS V14.01,2013-09-22 23:43:00,
2013-09-22 18:48:00,80.7,52.0,29.80,East,89,6.0,7.0,37,0.00,,---,0.00,VWS V14.01,2013-09-22 23:48:00,
2013-09-22 18:53:00,80.5,51.9,29.80,East,82,4.0,5.0,37,0.00,,---,0.00,VWS V14.01,2013-09-22 23:53:00,
2013-09-22 18:58:00,80.2,52.3,29.80,East,79,8.0,8.0,38,0.00,,---,0.00,VWS V14.01,2013-09-22 23:58:00,
2013-09-22 19:03:00,79.9,52.0,29.80,ESE,117,2.0,4.0,38,0.00,,---,0.00,VWS V14.01,2013-09-23 00:03:00,
2013-09-22 19:08:00,79.5,52.4,29.80,East,80,3.0,3.0,39,0.00,,---,0.00,VWS V14.01,2013-09-23 00:08:00,
2013-09-22 19:13:00,79.1,52.0,29.80,East,88,2.0,2.0,39,0.00,,---,0.00,VWS V14.01,2013-09-23 00:13:00,
2013-09-22 19:18:00,78.4,52.1,29.80,ENE,78,2.0,3.0,40,0.00,,---,0.00,VWS V14.01,2013-09-23 00:18:00,
2013-09-22 19:23:00,77.7,52.8,29.80,East,84,2.0,4.0,42,0.00,,---,0.00,VWS V14.01,2013-09-23 00:23:00,
2013-09-22 19:28:00,77.1,52.9,29.80,East,82,2.0,2.0,43,0.00,,---,0.00,VWS V14.01,2013-09-23 00:28:00,
2013-09-22 19:33:00,76.6,53.1,29.80,ENE,78,2.0,4.0,44,0.00,,---,0.00,VWS V14.01,2013-09-23 00:33:00,
2013-09-22 19:38:00,76.1,53.2,29.80,ENE,78,2.0,2.0,45,0.00,,---,0.00,VWS V14.01,2013-09-23 00:38:00,
2013-09-22 19:43:00,75.7,53.5,29.80,ENE,70,3.0,3.0,46,0.00,,---,0.00,VWS V14.01,2013-09-23 00:43:00,
2013-09-22 19:48:00,75.2,54.2,29.80,ENE,73,2.0,2.0,48,0.00,,---,0.00,VWS V14.01,2013-09-23 00:48:00,
2013-09-22 19:53:00,74.6,53.6,29.80,ENE,72,1.0,2.0,48,0.00,,---,0.00,VWS V14.01,2013-09-23 00:53:00,
2013-09-22 19:58:00,74.2,54.9,29.80,ENE,78,1.0,3.0,51,0.00,,---,0.00,VWS V14.01,2013-09-23 00:58:00,
2013-09-22 20:03:00,73.8,54.6,29.80,ENE,71,2.0,3.0,51,0.00,,---,0.00,VWS V14.01,2013-09-23 01:03:00,
2013-09-22 20:08:00,73.6,54.4,29.80,East,101,1.0,3.0,51,0.00,,---,0.00,VWS V14.01,2013-09-23 01:08:00,
2013-09-22 20:13:00,73.3,53.6,29.80,East,82,2.0,3.0,50,0.00,,---,0.00,VWS V14.01,2013-09-23 01:13:00,
2013-09-22 20:18:00,73.1,53.9,29.80,ENE,67,1.0,2.0,51,0.00,,---,0.00,VWS V14.01,2013-09-23 01:18:00,
2013-09-22 20:23:00,73.1,54.5,29.81,East,79,1.0,2.0,52,0.00,,---,0.00,VWS V14.01,2013-09-23 01:23:00,
2013-09-22 20:28:00,72.9,54.8,29.81,East,85,1.0,2.0,53,0.00,,---,0.00,VWS V14.01,2013-09-23 01:28:00,
2013-09-22 20:33:00,72.6,55.0,29.81,ENE,70,1.0,2.0,54,0.00,,---,0.00,VWS V14.01,2013-09-23 01:33:00,
2013-09-22 20:38:00,72.4,54.8,29.81,East,98,1.0,1.0,54,0.00,,---,0.00,VWS V14.01,2013-09-23 01:38:00,
2013-09-22 20:43:00,72.3,54.7,29.81,SE,124,0.0,2.0,54,0.00,,---,0.00,VWS V14.01,2013-09-23 01:43:00,
2013-09-22 20:48:00,72.3,54.7,29.81,East,97,1.0,3.0,54,0.00,,---,0.00,VWS V14.01,2013-09-23 01:48:00,
2013-09-22 20:53:00,72.3,54.7,29.81,East,98,2.0,4.0,54,0.00,,---,0.00,VWS V14.01,2013-09-23 01:53:00,
2013-09-22 20:58:00,72.3,54.7,29.81,SSE,166,1.0,3.0,54,0.00,,---,0.00,VWS V14.01,2013-09-23 01:58:00,
2013-09-22 21:03:00,72.3,54.2,29.81,East,85,1.0,2.0,53,0.00,,---,0.00,VWS V14.01,2013-09-23 02:03:00,
2013-09-22 21:08:00,72.3,54.2,29.81,East,79,1.0,4.0,53,0.00,,---,0.00,VWS V14.01,2013-09-23 02:08:00,
2013-09-22 21:13:00,72.4,54.3,29.82,East,96,5.0,5.0,53,0.00,,---,0.00,VWS V14.01,2013-09-23 02:13:00,
2013-09-22 21:18:00,72.3,54.7,29.81,ESE,110,1.0,3.0,54,0.00,,---,0.00,VWS V14.01,2013-09-23 02:18:00,
2013-09-22 21:23:00,72.1,54.6,29.82,SE,132,1.0,3.0,54,0.00,,---,0.00,VWS V14.01,2013-09-23 02:23:00,
2013-09-22 21:28:00,71.9,54.9,29.82,ESE,115,2.0,3.0,55,0.00,,---,0.00,VWS V14.01,2013-09-23 02:28:00,
2013-09-22 21:33:00,71.5,54.5,29.81,ESE,108,1.0,3.0,55,0.00,,---,0.00,VWS V14.01,2013-09-23 02:33:00,
2013-09-22 21:38:00,71.3,54.8,29.81,SE,127,2.0,3.0,56,0.00,,---,0.00,VWS V14.01,2013-09-23 02:38:00,
2013-09-22 21:43:00,71.0,54.5,29.82,ENE,77,2.0,2.0,56,0.00,,---,0.00,VWS V14.01,2013-09-23 02:43:00,
2013-09-22 21:48:00,70.8,54.3,29.82,ENE,72,1.0,3.0,56,0.00,,---,0.00,VWS V14.01,2013-09-23 02:48:00,
2013-09-22 21:53:00,70.6,54.2,29.82,East,97,3.0,4.0,56,0.00,,---,0.00,VWS V14.01,2013-09-23 02:53:00,
2013-09-22 21:58:00,70.6,53.7,29.82,ESE,103,2.0,4.0,55,0.00,,---,0.00,VWS V14.01,2013-09-23 02:58:00,
2013-09-22 22:03:00,70.5,53.6,29.82,SSE,162,2.0,2.0,55,0.00,,---,0.00,VWS V14.01,2013-09-23 03:03:00,
2013-09-22 22:08:00,70.4,54.0,29.83,SE,126,3.0,3.0,56,0.00,,---,0.00,VWS V14.01,2013-09-23 03:08:00,
2013-09-22 22:13:00,70.3,53.9,29.83,SE,124,3.0,3.0,56,0.00,,---,0.00,VWS V14.01,2013-09-23 03:13:00,
2013-09-22 22:18:00,70.3,53.9,29.83,ENE,77,5.0,5.0,56,0.00,,---,0.00,VWS V14.01,2013-09-23 03:18:00,
2013-09-22 22:23:00,70.0,54.1,29.83,East,90,2.0,4.0,57,0.00,,---,0.00,VWS V14.01,2013-09-23 03:23:00,
2013-09-22 22:28:00,69.6,53.7,29.83,East,98,5.0,5.0,57,0.00,,---,0.00,VWS V14.01,2013-09-23 03:28:00,
2013-09-22 22:33:00,69.4,54.0,29.83,East,98,2.0,3.0,58,0.00,,---,0.00,VWS V14.01,2013-09-23 03:33:00,
2013-09-22 22:38:00,69.3,53.9,29.83,East,94,3.0,4.0,58,0.00,,---,0.00,VWS V14.01,2013-09-23 03:38:00,
2013-09-22 22:43:00,69.3,54.4,29.83,East,94,3.0,3.0,59,0.00,,---,0.00,VWS V14.01,2013-09-23 03:43:00,
2013-09-22 22:48:00,69.4,54.0,29.83,East,86,3.0,3.0,58,0.00,,---,0.00,VWS V14.01,2013-09-23 03:48:00,
2013-09-22 22:53:00,69.5,54.1,29.83,ESE,110,2.0,3.0,58,0.00,,---,0.00,VWS V14.01,2013-09-23 03:53:00,
2013-09-22 22:58:00,69.4,54.5,29.83,East,94,5.0,6.0,59,0.00,,---,0.00,VWS V14.01,2013-09-23 03:58:00,
2013-09-22 23:01:00,69.4,54.5,29.83,East,88,5.0,5.0,59,0.00,,---,0.00,VWS V14.01,2013-09-23 04:01:00,
2013-09-22 23:02:00,69.4,54.5,29.83,ENE,75,2.0,2.0,59,0.00,,---,0.00,VWS V14.01,2013-09-23 04:02:00,
2013-09-22 23:07:00,69.2,54.7,29.83,ENE,68,3.0,4.0,60,0.00,,---,0.00,VWS V14.01,2013-09-23 04:07:00,
2013-09-22 23:12:00,69.1,54.7,29.84,ENE,78,4.0,6.0,60,0.00,,---,0.00,VWS V14.01,2013-09-23 04:12:00,
2013-09-22 23:17:00,69.0,55.0,29.83,ENE,68,3.0,3.0,61,0.00,,---,0.00,VWS V14.01,2013-09-23 04:17:00,
2013-09-22 23:22:00,68.8,54.8,29.84,East,98,3.0,3.0,61,0.00,,---,0.00,VWS V14.01,2013-09-23 04:22:00,
2013-09-22 23:27:00,68.7,55.2,29.83,SE,127,5.0,5.0,62,0.00,,---,0.00,VWS V14.01,2013-09-23 04:27:00,
2013-09-22 23:32:00,68.5,55.0,29.83,East,91,4.0,4.0,62,0.00,,---,0.00,VWS V14.01,2013-09-23 04:32:00,
2013-09-22 23:37:00,68.4,54.9,29.83,ESE,104,4.0,5.0,62,0.00,,---,0.00,VWS V14.01,2013-09-23 04:37:00,
2013-09-22 23:42:00,68.3,54.8,29.83,ESE,113,4.0,6.0,62,0.00,,---,0.00,VWS V14.01,2013-09-23 04:42:00,
2013-09-22 23:47:00,68.1,54.6,29.83,East,90,6.0,7.0,62,0.00,,---,0.00,VWS V14.01,2013-09-23 04:47:00,
2013-09-22 23:52:00,68.1,54.6,29.83,East,79,4.0,8.0,62,0.00,,---,0.00,VWS V14.01,2013-09-23 04:52:00,
2013-09-22 23:57:00,68.1,54.6,29.83,East,97,6.0,6.0,62,0.00,,---,0.00,VWS V14.01,2013-09-23 04:57:00,